Etusivu
METAR-TAF:

METAR-TAF

Lentoasemat :

Vuoreija, Norja

Leveyspiiri: 70-21N, Pituuspiiri: 031-03E, korkeus merenpinnasta: 12 m

Tämänhetkinen sää

Tämä raportti tehtiin 39 minuuttia sitten, kello 16.50 UTC
Tuuli 11 kn lännestä/luoteesta
Lämpötila -2°C
Kosteus 80%
Ilmanpaine 1025 hPa
Näkyvyys 10 km tai enemmän
Muutamia pilviä 1000 ft:n korkeudessa
Hajanaisia pilviä 3000 ft:n korkeudessa

METAR: ENSS 191650Z 30011KT 9999 FEW010 SCT030 M02/M05 Q1025 RMK WIND 500FT 32015KT

Aika: 19:29 (17:29 UTC)


TAF: puuttuu

Säähavainnot ja -ennusteet yli 4000 lentoasemalta (METAR- ja TAF-raportit).

Käytössä olevat sääasemat on merkitty karttaan keltaisilla ja punaisilla pisteillä.

Aseta hiiri pisteen päälle nähdäksesi sääaseman nimen.

Klikkaa sitten nähdäksesi säähavainnot ja -ennusteet.

Kartan vaihtaminen: klikkaa mustalla rastilla varustettuja vihreitä pisteitä, niin voit zoomata sisään; viivalla varustettua vihreää pistettä, niin voit zoomata ulos tai vihreitä nuolia, niin pääset viereisille kartoille.


METAR-TAF: